Terminal Aerodrome Forecast
Issued by NWS

Home | Current Version | Previous Version | Text Only | Print | Product List | Glossary On
Versions: 1 2 3 4 5 6 7 8 9 10 11 12 13 14
000
FTUS46 KPDT 190536
TAFPSC
TAF
KPSC 190536Z 1906/2006 VRB04KT P6SM BKN200
     FM191800 22014G24KT P6SM BKN250
     FM200200 22015G25KT P6SM VCSH BKN100 BKN250=

USA.gov is the U.S. government's official web portal to all federal, state and local government web resources and services.